logo dgac
Martes 16 de Julio del 2019
Buscar por aerodromo o helipuerto
Ingrese nombre de aeródromo, localidad o designador OACI:
METAR del 17-07-2019 a las 01:00 UTC
METAR SCQP 170100Z 02007KT 9999 SCT035 BKN043 10/08 Q1018
Viento: dirección 020 grados, velocidad 7 nudos
Visibilidad: 10 km o más
Nubes: Nubosidad parcial a 3500 pies sobre el nivel del aeródromo
Nubes: Nublado a 4300 pies sobre el nivel del aeródromo
Temperatura: 10 °C
Rocío: 8 °C
Humedad_relativa: 87%
Presión: 1018 hPa
METAR del 17-07-2019 a las 00:00 UTC
METAR SCQP 170000Z 01008KT 9999 -SHRA FEW018 OVC035 10/08 Q1018
Viento: dirección 010 grados, velocidad 8 nudos
Visibilidad: 10 km o más
Débil ChubascosLluvia
Nubes: Escasa nubosidad a 1800 pies sobre el nivel del aeródromo
Nubes: Cubierto a 3500 pies sobre el nivel del aeródromo
Temperatura: 10 °C
Rocío: 8 °C
Humedad_relativa: 87%
Presión: 1018 hPa
METAR del 16-07-2019 a las 23:00 UTC
METAR SCQP 162300Z 02010KT 9999 FEW018 OVC027 11/06 Q1017
Viento: dirección 020 grados, velocidad 10 nudos
Visibilidad: 10 km o más
Nubes: Escasa nubosidad a 1800 pies sobre el nivel del aeródromo
Nubes: Cubierto a 2700 pies sobre el nivel del aeródromo
Temperatura: 11 °C
Rocío: 6 °C
Humedad_relativa: 71%
Presión: 1017 hPa
METAR del 16-07-2019 a las 22:00 UTC
METAR SCQP 162200Z 01012KT 9999 BKN025 OVC042 11/07 Q1017
Viento: dirección 010 grados, velocidad 12 nudos
Visibilidad: 10 km o más
Nubes: Nublado a 2500 pies sobre el nivel del aeródromo
Nubes: Cubierto a 4200 pies sobre el nivel del aeródromo
Temperatura: 11 °C
Rocío: 7 °C
Humedad_relativa: 76%
Presión: 1017 hPa
METAR del 16-07-2019 a las 21:00 UTC
METAR SCQP 162100Z 01011KT 9999 BKN030 OVC049 12/08 Q1016
Viento: dirección 010 grados, velocidad 11 nudos
Visibilidad: 10 km o más
Nubes: Nublado a 3000 pies sobre el nivel del aeródromo
Nubes: Cubierto a 4900 pies sobre el nivel del aeródromo
Temperatura: 12 °C
Rocío: 8 °C
Humedad_relativa: 77%
Presión: 1016 hPa
METAR del 16-07-2019 a las 21:00 UTC
METAR SCQP 162100Z 01011KT 9999 BKN030 OVC049 12/08 Q1016
Viento: dirección 010 grados, velocidad 11 nudos
Visibilidad: 10 km o más
Nubes: Nublado a 3000 pies sobre el nivel del aeródromo
Nubes: Cubierto a 4900 pies sobre el nivel del aeródromo
Temperatura: 12 °C
Rocío: 8 °C
Humedad_relativa: 77%
Presión: 1016 hPa
METAR del 16-07-2019 a las 20:00 UTC
METAR SCQP 162000Z 01011KT 9999 OVC033 11/09 Q1016
Viento: dirección 010 grados, velocidad 11 nudos
Visibilidad: 10 km o más
Nubes: Cubierto a 3300 pies sobre el nivel del aeródromo
Temperatura: 11 °C
Rocío: 9 °C
Humedad_relativa: 87%
Presión: 1016 hPa
METAR del 16-07-2019 a las 20:00 UTC
METAR SCQP 162000Z 01011KT 9999 OVC033 11/09 Q1016
Viento: dirección 010 grados, velocidad 11 nudos
Visibilidad: 10 km o más
Nubes: Cubierto a 3300 pies sobre el nivel del aeródromo
Temperatura: 11 °C
Rocío: 9 °C
Humedad_relativa: 87%
Presión: 1016 hPa
METAR del 16-07-2019 a las 19:00 UTC
METAR SCQP 161900Z 03007KT 9999 BKN029 10/08 Q1016
Viento: dirección 030 grados, velocidad 7 nudos
Visibilidad: 10 km o más
Nubes: Nublado a 2900 pies sobre el nivel del aeródromo
Temperatura: 10 °C
Rocío: 8 °C
Humedad_relativa: 87%
Presión: 1016 hPa
METAR del 16-07-2019 a las 19:00 UTC
METAR SCQP 161900Z 03007KT 9999 BKN029 10/08 Q1016
Viento: dirección 030 grados, velocidad 7 nudos
Visibilidad: 10 km o más
Nubes: Nublado a 2900 pies sobre el nivel del aeródromo
Temperatura: 10 °C
Rocío: 8 °C
Humedad_relativa: 87%
Presión: 1016 hPa